Time;durP1;ratioP1;P1;durP2;ratioP2;P2;SDS_P1;SDS_P2;PMS_P1;PMS_P2;Temp;Humidity;BMP_temperature;BMP_pressure;BME280_temperature;BME280_humidity;BME280_pressure;Samples;Min_cycle;Max_cycle;Signal;HPM_P1;HPM_P2
2023/12/17 00:01:29;;;;;;;66.32;42.22;;;0.90;99.90;;;;;;5091716;28;20040;-79
2023/12/17 00:03:55;;;;;;;64.53;40.47;;;0.80;99.90;;;;;;5092246;28;20028;-77
2023/12/17 00:06:20;;;;;;;76.65;46.60;;;0.90;99.90;;;;;;5091519;28;20367;-78
2023/12/17 00:08:48;;;;;;;81.70;50.88;;;0.90;99.90;;;;;;5092050;28;20024;-78
2023/12/17 00:11:14;;;;;;;82.53;51.17;;;0.90;99.90;;;;;;5091867;28;20089;-79
2023/12/17 00:13:40;;;;;;;77.78;48.35;;;0.80;99.90;;;;;;5091932;28;20031;-79
2023/12/17 00:16:07;;;;;;;72.30;46.47;;;0.80;99.90;;;;;;5106855;28;20044;-79
2023/12/17 00:18:33;;;;;;;71.47;45.92;;;0.80;99.90;;;;;;5107192;28;20047;-78
2023/12/17 00:20:59;;;;;;;69.72;46.20;;;0.80;99.90;;;;;;5074106;28;20028;-79
2023/12/17 00:23:25;;;;;;;69.95;45.22;;;0.80;99.90;;;;;;5091319;28;20090;-78
2023/12/17 00:25:51;;;;;;;57.72;40.13;;;0.70;99.90;;;;;;5092206;28;20024;-78
2023/12/17 00:28:16;;;;;;;67.25;39.55;;;0.70;99.90;;;;;;5091539;28;20086;-76
2023/12/17 00:30:44;;;;;;;61.85;39.30;;;0.60;99.90;;;;;;5091740;28;20466;-77
2023/12/17 00:33:13;;;;;;;60.50;38.50;;;0.60;99.90;;;;;;5092034;28;20023;-78
2023/12/17 00:35:39;;;;;;;59.88;39.72;;;0.60;99.90;;;;;;5073386;28;20496;-77
2023/12/17 00:38:05;;;;;;;64.57;39.72;;;0.70;99.90;;;;;;5091871;28;20043;-78
2023/12/17 00:40:31;;;;;;;58.22;40.08;;;0.70;99.90;;;;;;5091678;28;20028;-79
2023/12/17 00:42:57;;;;;;;56.78;38.38;;;0.70;99.90;;;;;;5085199;28;20028;-79
2023/12/17 00:45:23;;;;;;;61.33;38.15;;;0.60;99.90;;;;;;5084509;28;20077;-78
2023/12/17 00:47:49;;;;;;;61.20;38.22;;;0.70;99.90;;;;;;5091065;28;20529;-77
2023/12/17 00:50:15;;;;;;;61.58;38.30;;;0.60;99.90;;;;;;5093276;28;20028;-76
2023/12/17 00:52:40;;;;;;;58.55;38.67;;;0.70;99.90;;;;;;5102520;28;20440;-78
2023/12/17 00:55:07;;;;;;;56.97;37.00;;;0.70;99.90;;;;;;5100961;28;20492;-77
2023/12/17 00:57:33;;;;;;;57.13;37.20;;;0.70;99.90;;;;;;5094634;28;20031;-78
2023/12/17 00:59:59;;;;;;;56.05;36.28;;;0.70;99.90;;;;;;5094832;28;20036;-78
2023/12/17 01:02:25;;;;;;;49.70;33.00;;;0.70;99.90;;;;;;5094705;28;20094;-78
2023/12/17 01:04:51;;;;;;;59.28;37.85;;;0.70;99.90;;;;;;5095059;28;20475;-78
2023/12/17 01:07:16;;;;;;;68.88;42.13;;;0.70;99.90;;;;;;5110207;28;20031;-78
2023/12/17 01:09:42;;;;;;;62.35;39.60;;;0.60;99.90;;;;;;5094812;28;20534;-78
2023/12/17 01:12:08;;;;;;;59.50;37.08;;;0.60;99.90;;;;;;5062825;28;20059;-78
2023/12/17 01:14:35;;;;;;;61.15;38.40;;;0.60;99.90;;;;;;5094335;28;20111;-77
2023/12/17 01:17:02;;;;;;;57.22;37.53;;;0.60;99.90;;;;;;5094273;28;20051;-78
2023/12/17 01:19:28;;;;;;;57.60;38.58;;;0.60;99.90;;;;;;5094631;28;20016;-79
2023/12/17 01:21:54;;;;;;;60.78;38.50;;;0.70;99.90;;;;;;5094546;28;20032;-79
2023/12/17 01:24:20;;;;;;;68.28;41.50;;;0.80;99.90;;;;;;5094014;28;20500;-78
2023/12/17 01:26:46;;;;;;;61.30;38.70;;;0.80;99.90;;;;;;5081874;28;20053;-78
2023/12/17 01:29:12;;;;;;;66.38;39.88;;;0.80;99.90;;;;;;5094678;28;20097;-79
2023/12/17 01:31:38;;;;;;;59.15;37.40;;;0.70;99.90;;;;;;5092331;28;20470;-78
2023/12/17 01:34:03;;;;;;;63.17;39.30;;;0.70;99.90;;;;;;5094550;28;20478;-77
2023/12/17 01:36:29;;;;;;;66.97;39.47;;;0.70;99.90;;;;;;5094767;28;20025;-79
2023/12/17 01:38:55;;;;;;;67.13;39.72;;;0.60;99.90;;;;;;5094408;28;20474;-79
2023/12/17 01:41:21;;;;;;;60.25;34.80;;;0.50;99.90;;;;;;5094621;28;20073;-78
2023/12/17 01:43:47;;;;;;;57.50;38.70;;;0.50;99.90;;;;;;5094376;28;20077;-75
2023/12/17 01:46:14;;;;;;;69.28;38.08;;;0.50;99.90;;;;;;5094602;28;20016;-76
2023/12/17 01:48:41;;;;;;;56.85;36.50;;;0.50;99.90;;;;;;5094217;28;20070;-78
2023/12/17 01:51:08;;;;;;;57.22;37.60;;;0.40;99.90;;;;;;5093693;28;20366;-77
2023/12/17 01:53:34;;;;;;;55.72;34.45;;;0.40;99.90;;;;;;5093862;28;20107;-76
2023/12/17 01:56:01;;;;;;;48.83;30.15;;;0.40;99.90;;;;;;5094482;28;20023;-78
2023/12/17 01:58:27;;;;;;;49.72;30.15;;;0.30;99.90;;;;;;5093922;28;20107;-78
2023/12/17 02:00:54;;;;;;;50.47;29.58;;;0.30;99.90;;;;;;5093249;28;20454;-78
2023/12/17 02:03:20;;;;;;;45.17;26.92;;;0.30;99.90;;;;;;5093921;28;20386;-77
2023/12/17 02:05:46;;;;;;;40.28;24.63;;;0.30;99.90;;;;;;5093999;28;20017;-76
2023/12/17 02:08:12;;;;;;;41.53;26.27;;;0.30;99.90;;;;;;5085408;28;20028;-78
2023/12/17 02:10:38;;;;;;;42.67;26.00;;;0.30;99.90;;;;;;5093954;28;20016;-77
2023/12/17 02:13:04;;;;;;;46.15;27.42;;;0.30;99.90;;;;;;5093765;28;20107;-78
2023/12/17 02:15:30;;;;;;;43.25;27.77;;;0.40;99.90;;;;;;5093256;28;20462;-77
2023/12/17 02:17:56;;;;;;;39.85;25.23;;;0.40;99.90;;;;;;5093522;28;20153;-77
2023/12/17 02:20:22;;;;;;;44.83;25.73;;;0.40;99.90;;;;;;5093555;28;20144;-77
2023/12/17 02:22:53;;;;;;;40.50;24.58;;;0.50;99.90;;;;;;5093644;28;20119;-77
2023/12/17 02:25:19;;;;;;;42.92;25.73;;;0.40;99.90;;;;;;5093668;28;20038;-76
2023/12/17 02:27:45;;;;;;;42.28;25.83;;;0.40;99.90;;;;;;5092808;28;20027;-77
2023/12/17 02:30:11;;;;;;;38.63;25.88;;;0.40;99.90;;;;;;5093456;28;20016;-78
2023/12/17 02:32:37;;;;;;;41.22;26.20;;;0.50;99.90;;;;;;5093290;28;20173;-77
2023/12/17 02:35:03;;;;;;;40.25;26.10;;;0.50;99.90;;;;;;5093183;28;20103;-77
2023/12/17 02:37:29;;;;;;;48.22;28.25;;;0.50;99.90;;;;;;5092791;28;20020;-76
2023/12/17 02:39:55;;;;;;;43.75;27.42;;;0.50;99.90;;;;;;5092634;28;20020;-78
2023/12/17 02:42:21;;;;;;;38.95;24.27;;;0.50;99.90;;;;;;5092761;28;20046;-75
2023/12/17 02:44:48;;;;;;;36.38;23.45;;;0.50;99.90;;;;;;5093174;28;20030;-77
2023/12/17 02:47:14;;;;;;;43.67;25.13;;;0.50;99.90;;;;;;5092578;28;20039;-78
2023/12/17 02:49:43;;;;;;;48.67;27.30;;;0.50;99.90;;;;;;5092786;28;20024;-77
2023/12/17 02:52:09;;;;;;;42.92;29.23;;;0.50;99.90;;;;;;5092634;28;20044;-77
2023/12/17 02:54:35;;;;;;;46.55;27.23;;;0.50;99.90;;;;;;5092719;28;20850;-78
2023/12/17 02:57:01;;;;;;;51.45;32.63;;;0.50;99.90;;;;;;5092492;28;20012;-77
2023/12/17 02:59:27;;;;;;;43.33;28.75;;;0.50;99.90;;;;;;5092134;28;20474;-77
2023/12/17 03:01:53;;;;;;;45.50;26.60;;;0.50;99.90;;;;;;5092601;28;20106;-78
2023/12/17 03:04:19;;;;;;;43.15;26.77;;;0.40;99.90;;;;;;5092744;28;20024;-76
2023/12/17 03:06:45;;;;;;;51.92;29.23;;;0.40;99.90;;;;;;5092886;28;20028;-77
2023/12/17 03:09:11;;;;;;;40.55;26.05;;;0.40;99.90;;;;;;5092663;28;20028;-77
2023/12/17 03:11:37;;;;;;;40.47;27.05;;;0.40;99.90;;;;;;5092505;28;20024;-78
2023/12/17 03:14:03;;;;;;;42.85;25.05;;;0.40;99.90;;;;;;5092530;28;20040;-77
2023/12/17 03:16:29;;;;;;;38.22;24.33;;;0.40;99.90;;;;;;5092537;28;20094;-80
2023/12/17 03:18:55;;;;;;;40.05;24.33;;;0.40;99.90;;;;;;5092244;28;20024;-79
2023/12/17 03:21:23;;;;;;;39.05;24.50;;;0.40;99.90;;;;;;5092344;28;20463;-76
2023/12/17 03:23:50;;;;;;;41.35;25.70;;;0.40;99.90;;;;;;5092293;28;20028;-76
2023/12/17 03:26:16;;;;;;;35.42;24.00;;;0.50;99.90;;;;;;5092957;28;20098;-77
2023/12/17 03:28:42;;;;;;;39.90;22.80;;;0.40;99.90;;;;;;5092644;28;20131;-79
2023/12/17 03:31:13;;;;;;;32.35;22.38;;;0.40;99.90;;;;;;5092343;28;20134;-79
2023/12/17 03:33:39;;;;;;;42.65;24.25;;;0.40;99.90;;;;;;5092290;28;20497;-79
2023/12/17 03:36:05;;;;;;;38.05;23.98;;;0.30;99.90;;;;;;5092159;28;20024;-78
2023/12/17 03:38:31;;;;;;;38.08;22.92;;;0.20;99.90;;;;;;5092147;28;20043;-79
2023/12/17 03:40:57;;;;;;;42.17;25.80;;;0.20;99.90;;;;;;5092174;28;20398;-79
2023/12/17 03:43:23;;;;;;;42.50;25.02;;;0.20;99.90;;;;;;5107152;28;20044;-79
2023/12/17 03:45:48;;;;;;;40.33;24.27;;;0.20;99.90;;;;;;5091902;28;20070;-78
2023/12/17 03:48:14;;;;;;;41.35;25.13;;;0.20;99.90;;;;;;5092287;28;20543;-79
2023/12/17 03:50:40;;;;;;;41.03;27.75;;;0.20;99.90;;;;;;5091724;28;20111;-78
2023/12/17 03:53:10;;;;;;;43.55;27.80;;;0.20;99.90;;;;;;5091930;28;20541;-79
2023/12/17 03:55:39;;;;;;;42.28;27.20;;;0.30;99.90;;;;;;5091447;28;20055;-78
2023/12/17 03:58:05;;;;;;;45.35;28.23;;;0.30;99.90;;;;;;5091293;28;20531;-78
2023/12/17 04:00:31;;;;;;;39.70;25.40;;;0.30;99.90;;;;;;5091846;28;20031;-78
2023/12/17 04:02:56;;;;;;;50.25;32.38;;;0.30;99.90;;;;;;5092291;28;20040;-78
2023/12/17 04:05:27;;;;;;;47.67;29.75;;;0.30;99.90;;;;;;5091873;28;20027;-78
2023/12/17 04:07:53;;;;;;;49.10;30.25;;;0.30;99.90;;;;;;5092214;28;20092;-78
2023/12/17 04:10:19;;;;;;;49.78;32.00;;;0.30;99.90;;;;;;5091624;28;20016;-78
2023/12/17 04:12:45;;;;;;;75.95;43.22;;;0.30;99.90;;;;;;5092356;28;20039;-78
2023/12/17 04:15:10;;;;;;;96.75;51.85;;;0.20;99.90;;;;;;5091724;28;20016;-78
2023/12/17 04:17:36;;;;;;;70.57;44.58;;;0.20;99.90;;;;;;5091994;28;20060;-76
2023/12/17 04:20:02;;;;;;;95.43;56.65;;;0.20;99.90;;;;;;5091764;28;20069;-77
2023/12/17 04:22:28;;;;;;;96.38;57.67;;;0.20;99.90;;;;;;5087670;28;20496;-79
2023/12/17 04:24:54;;;;;;;86.15;56.17;;;0.20;99.90;;;;;;5092536;28;20099;-77
2023/12/17 04:27:20;;;;;;;91.55;55.88;;;0.20;99.90;;;;;;5095609;28;20471;-76
2023/12/17 04:29:46;;;;;;;99.25;58.75;;;0.20;99.90;;;;;;5095868;28;20017;-76
2023/12/17 04:32:12;;;;;;;87.25;54.50;;;0.20;99.90;;;;;;5110534;28;20506;-77
2023/12/17 04:34:37;;;;;;;99.40;57.75;;;0.30;99.90;;;;;;5095327;28;20101;-77
2023/12/17 04:37:03;;;;;;;95.72;60.55;;;0.30;99.90;;;;;;5095198;28;20103;-78
2023/12/17 04:39:29;;;;;;;124.68;72.70;;;0.30;99.90;;;;;;5095646;28;20366;-78
2023/12/17 04:41:55;;;;;;;70.93;43.25;;;0.30;99.90;;;;;;5094955;28;20438;-77
2023/12/17 04:44:21;;;;;;;94.82;61.17;;;0.30;99.90;;;;;;5094945;28;20032;-78
2023/12/17 04:46:47;;;;;;;120.95;78.53;;;0.20;99.90;;;;;;5095300;28;20101;-77
2023/12/17 04:49:13;;;;;;;108.82;66.57;;;0.20;99.90;;;;;;5095204;28;20032;-78
2023/12/17 04:51:39;;;;;;;94.57;59.85;;;0.30;99.90;;;;;;5095429;28;20405;-80
2023/12/17 04:54:04;;;;;;;95.50;64.00;;;0.30;99.90;;;;;;5094770;28;20024;-77
2023/12/17 04:56:30;;;;;;;88.03;57.95;;;0.30;99.90;;;;;;5095108;28;20024;-79
2023/12/17 04:58:56;;;;;;;88.07;58.13;;;0.30;99.90;;;;;;5094832;28;20028;-79
2023/12/17 05:01:22;;;;;;;213.15;127.20;;;0.20;99.90;;;;;;5095325;28;20028;-79
2023/12/17 05:03:48;;;;;;;150.68;83.22;;;0.20;99.90;;;;;;5094149;28;20032;-79
2023/12/17 05:06:14;;;;;;;115.07;67.88;;;0.30;99.90;;;;;;5095358;28;20028;-78
2023/12/17 05:08:39;;;;;;;100.70;59.13;;;0.30;99.90;;;;;;5094683;28;20057;-79
2023/12/17 05:11:05;;;;;;;103.15;62.70;;;0.20;99.90;;;;;;5093678;28;20085;-79
2023/12/17 05:13:31;;;;;;;109.88;67.53;;;0.10;99.90;;;;;;5092557;28;20028;-79
2023/12/17 05:15:57;;;;;;;101.90;65.68;;;0.10;99.90;;;;;;5094843;28;20040;-79
2023/12/17 05:18:23;;;;;;;106.60;62.85;;;0.10;99.90;;;;;;5094371;28;20437;-78
2023/12/17 05:20:49;;;;;;;105.70;62.45;;;0.10;99.90;;;;;;5094707;28;20467;-79
2023/12/17 05:23:15;;;;;;;105.65;64.35;;;0.10;99.90;;;;;;5094876;28;20463;-79
2023/12/17 05:25:41;;;;;;;103.28;60.33;;;0.10;99.90;;;;;;5094392;28;20074;-79
2023/12/17 05:28:09;;;;;;;101.38;60.22;;;0.10;99.90;;;;;;5094683;28;20027;-77
2023/12/17 05:30:35;;;;;;;93.82;55.17;;;0.10;99.90;;;;;;5094539;28;20433;-79
2023/12/17 05:33:02;;;;;;;99.10;57.38;;;0.10;99.90;;;;;;5094472;28;20073;-78
2023/12/17 05:35:27;;;;;;;91.72;57.25;;;0.10;99.90;;;;;;5094192;28;20463;-79
2023/12/17 05:37:53;;;;;;;88.13;53.67;;;0.00;99.90;;;;;;5094260;28;20032;-78
2023/12/17 05:40:19;;;;;;;96.32;59.03;;;0.00;99.90;;;;;;5094421;28;20028;-79
2023/12/17 05:42:45;;;;;;;99.80;69.25;;;0.00;99.90;;;;;;5094066;28;20028;-80
2023/12/17 05:45:11;;;;;;;90.13;57.90;;;0.00;99.90;;;;;;5093997;28;20371;-80
2023/12/17 05:47:39;;;;;;;92.50;55.60;;;0.10;99.90;;;;;;5094332;28;20036;-78
2023/12/17 05:50:06;;;;;;;83.57;52.70;;;0.10;99.90;;;;;;5094151;28;20057;-78
2023/12/17 05:52:32;;;;;;;89.38;54.10;;;0.00;99.90;;;;;;5075919;28;20031;-79
2023/12/17 05:54:58;;;;;;;95.50;57.58;;;0.10;99.90;;;;;;5094375;28;20467;-79
2023/12/17 05:57:23;;;;;;;89.13;53.10;;;0.00;99.90;;;;;;5093456;28;20031;-79
2023/12/17 05:59:49;;;;;;;91.68;52.42;;;0.00;99.90;;;;;;5094075;28;20020;-79
2023/12/17 06:02:15;;;;;;;89.07;54.00;;;0.00;99.90;;;;;;5093659;28;20119;-79
2023/12/17 06:04:41;;;;;;;92.03;58.20;;;-0.10;99.90;;;;;;5093897;28;20082;-79
2023/12/17 06:07:07;;;;;;;98.65;62.13;;;-0.10;99.90;;;;;;5093363;28;20020;-79
2023/12/17 06:09:35;;;;;;;98.88;61.22;;;-0.10;99.90;;;;;;5093938;28;20085;-80
2023/12/17 06:12:01;;;;;;;97.43;58.17;;;-0.10;99.90;;;;;;5093818;28;20069;-79
2023/12/17 06:14:28;;;;;;;90.88;60.53;;;0.00;99.90;;;;;;5093328;28;20032;-79
2023/12/17 06:16:54;;;;;;;101.72;66.68;;;0.00;99.90;;;;;;5093642;28;20048;-79
2023/12/17 06:19:20;;;;;;;106.03;65.68;;;0.00;99.90;;;;;;5093623;28;20027;-79
2023/12/17 06:21:46;;;;;;;115.70;70.40;;;0.00;99.90;;;;;;5093553;28;20463;-79
2023/12/17 06:24:13;;;;;;;128.40;77.10;;;0.00;99.90;;;;;;5093599;28;20122;-79
2023/12/17 06:26:39;;;;;;;121.07;74.03;;;0.00;99.90;;;;;;5093630;28;20020;-79
2023/12/17 06:29:13;;;;;;;111.53;71.53;;;0.00;99.90;;;;;;5093075;28;20024;-78
2023/12/17 06:31:42;;;;;;;119.07;75.78;;;0.00;99.90;;;;;;5080283;28;20152;-79
2023/12/17 06:34:08;;;;;;;132.68;85.20;;;0.10;99.90;;;;;;5092994;28;20031;-79
2023/12/17 06:36:34;;;;;;;126.28;76.68;;;0.20;99.90;;;;;;5108101;28;20031;-79
2023/12/17 06:39:00;;;;;;;118.95;69.60;;;0.10;99.90;;;;;;5094191;28;20157;-78
2023/12/17 06:41:26;;;;;;;128.32;71.35;;;0.20;99.90;;;;;;5105115;28;20077;-79
2023/12/17 06:43:52;;;;;;;108.15;73.82;;;0.30;99.90;;;;;;5089867;28;20510;-78
2023/12/17 06:46:18;;;;;;;114.28;73.38;;;0.40;99.90;;;;;;5090008;28;20020;-79
2023/12/17 06:48:49;;;;;;;135.98;77.70;;;0.40;99.90;;;;;;5089384;28;20467;-79
2023/12/17 06:51:14;;;;;;;150.50;91.55;;;0.50;99.90;;;;;;5090085;28;20454;-79
2023/12/17 06:53:40;;;;;;;144.25;85.95;;;0.60;99.90;;;;;;5089278;28;20016;-78
2023/12/17 06:56:07;;;;;;;161.43;91.05;;;0.70;99.90;;;;;;5089095;28;20111;-80
2023/12/17 06:58:33;;;;;;;156.15;92.75;;;0.70;99.90;;;;;;5085103;28;20533;-79
2023/12/17 07:00:59;;;;;;;149.45;94.25;;;0.80;99.90;;;;;;5092600;28;20031;-79
2023/12/17 07:03:25;;;;;;;133.25;83.40;;;0.80;99.90;;;;;;5083753;28;20031;-78
2023/12/17 07:05:51;;;;;;;132.63;87.18;;;0.90;99.90;;;;;;5089237;28;20020;-80
2023/12/17 07:08:17;;;;;;;142.98;87.90;;;1.00;99.90;;;;;;5089884;28;20028;-79
2023/12/17 07:10:45;;;;;;;126.78;79.88;;;1.00;99.90;;;;;;5079272;28;20029;-79
2023/12/17 07:13:10;;;;;;;133.20;84.35;;;1.00;99.90;;;;;;5085323;28;20029;-79
2023/12/17 07:15:36;;;;;;;141.10;84.40;;;1.10;99.90;;;;;;5090685;28;20024;-79
2023/12/17 07:18:02;;;;;;;133.13;85.15;;;1.20;99.90;;;;;;5091339;28;20084;-79
2023/12/17 07:20:28;;;;;;;115.07;75.78;;;1.30;99.90;;;;;;5084007;28;20028;-79
2023/12/17 07:22:54;;;;;;;309.95;163.32;;;1.40;99.90;;;;;;5087249;28;20029;-79
2023/12/17 07:25:20;;;;;;;265.67;145.02;;;1.60;99.90;;;;;;5083816;28;20384;-79
2023/12/17 07:27:46;;;;;;;203.57;118.32;;;1.70;99.90;;;;;;5083526;28;20016;-80
2023/12/17 07:30:13;;;;;;;233.20;130.52;;;1.80;99.90;;;;;;5092031;28;20458;-79
2023/12/17 07:32:38;;;;;;;200.70;115.72;;;1.90;99.90;;;;;;5088414;28;20056;-80
2023/12/17 07:35:07;;;;;;;174.15;106.55;;;2.00;99.90;;;;;;5072557;28;20048;-80
2023/12/17 07:37:33;;;;;;;154.13;101.03;;;2.10;99.90;;;;;;5073756;28;20028;-79
2023/12/17 07:39:59;;;;;;;153.70;94.35;;;2.20;99.90;;;;;;5076441;28;20047;-80
2023/12/17 07:42:24;;;;;;;164.15;104.30;;;2.20;99.90;;;;;;5085421;28;20036;-80
2023/12/17 07:44:50;;;;;;;141.40;92.68;;;2.30;99.90;;;;;;5091304;28;20036;-79
2023/12/17 07:47:16;;;;;;;129.55;77.70;;;2.40;99.90;;;;;;5090622;28;20028;-79
2023/12/17 07:49:43;;;;;;;113.35;73.20;;;2.60;99.90;;;;;;5087863;28;20115;-80
2023/12/17 07:52:13;;;;;;;126.93;76.20;;;2.70;99.90;;;;;;5102094;28;20048;-79
2023/12/17 07:54:42;;;;;;;128.00;79.75;;;2.70;99.90;;;;;;5095135;28;20032;-79
2023/12/17 07:57:09;;;;;;;130.30;79.47;;;2.80;99.90;;;;;;5080609;28;20352;-79
2023/12/17 07:59:38;;;;;;;131.98;84.25;;;2.90;99.90;;;;;;5085022;28;20498;-78
2023/12/17 08:02:04;;;;;;;120.63;79.93;;;2.90;99.90;;;;;;5090162;28;20028;-79
2023/12/17 08:04:30;;;;;;;125.43;81.80;;;2.90;99.90;;;;;;5080974;28;20089;-79
2023/12/17 08:06:56;;;;;;;128.75;83.07;;;3.00;99.90;;;;;;5077887;28;20025;-79
2023/12/17 08:09:22;;;;;;;137.02;89.07;;;3.10;99.90;;;;;;5093860;28;20028;-79
2023/12/17 08:11:48;;;;;;;136.38;89.53;;;3.20;99.90;;;;;;5084768;28;20419;-79
2023/12/17 08:14:14;;;;;;;141.80;92.20;;;3.20;99.90;;;;;;5095636;28;20114;-79
2023/12/17 08:16:42;;;;;;;126.07;85.60;;;3.30;99.90;;;;;;5094945;28;20048;-79
2023/12/17 08:19:07;;;;;;;128.85;82.78;;;3.50;99.90;;;;;;5094449;28;20028;-80
2023/12/17 08:21:33;;;;;;;129.55;86.80;;;3.50;99.90;;;;;;5093807;28;20482;-79
2023/12/17 08:23:59;;;;;;;127.53;83.55;;;3.50;99.90;;;;;;5094587;28;20036;-78
2023/12/17 08:26:25;;;;;;;128.70;84.55;;;3.60;99.90;;;;;;5095307;28;20459;-77
2023/12/17 08:28:53;;;;;;;127.40;82.88;;;3.70;99.90;;;;;;5095746;28;20123;-77
2023/12/17 08:31:19;;;;;;;127.63;86.22;;;3.80;99.90;;;;;;5095120;28;20024;-79
2023/12/17 08:33:51;;;;;;;123.32;79.53;;;3.90;99.90;;;;;;5095567;28;20031;-79
2023/12/17 08:36:17;;;;;;;126.30;84.88;;;4.00;99.90;;;;;;5091467;28;20024;-78
2023/12/17 08:38:45;;;;;;;115.05;79.55;;;4.10;99.90;;;;;;5055485;28;20025;-78
2023/12/17 08:41:20;;;;;;;128.60;84.63;;;4.30;99.90;;;;;;5057887;28;20028;-76
2023/12/17 08:43:46;;;;;;;116.20;77.68;;;4.30;99.90;;;;;;5072597;28;20046;-77
2023/12/17 08:46:19;;;;;;;128.00;85.30;;;4.40;99.90;;;;;;5081428;28;20059;-77
2023/12/17 08:48:47;;;;;;;122.88;82.78;;;4.50;99.90;;;;;;5076005;28;20063;-78
2023/12/17 08:51:15;;;;;;;95.57;64.55;;;4.60;99.90;;;;;;5073516;28;20515;-76
2023/12/17 08:53:44;;;;;;;96.10;66.63;;;4.70;99.90;;;;;;5075848;28;20034;-76
2023/12/17 08:56:12;;;;;;;106.50;71.57;;;4.80;99.90;;;;;;5058193;28;20028;-77
2023/12/17 08:58:41;;;;;;;101.88;70.13;;;4.90;99.90;;;;;;5048484;28;20032;-77
2023/12/17 09:01:07;;;;;;;97.53;69.40;;;5.00;99.90;;;;;;5050281;28;20036;-79
2023/12/17 09:03:33;;;;;;;101.22;70.88;;;5.20;99.90;;;;;;5059290;28;20036;-77
2023/12/17 09:06:04;;;;;;;95.75;68.72;;;5.20;99.90;;;;;;5071727;28;20024;-76
2023/12/17 09:08:30;;;;;;;125.32;84.32;;;5.30;99.90;;;;;;5069905;28;20031;-77
2023/12/17 09:10:56;;;;;;;119.00;83.57;;;5.40;99.90;;;;;;5070799;28;20028;-77
2023/12/17 09:13:23;;;;;;;123.07;86.00;;;5.50;99.90;;;;;;5095130;28;20028;-78
2023/12/17 09:15:49;;;;;;;121.97;85.50;;;5.60;99.90;;;;;;5084045;28;20047;-78
2023/12/17 09:18:15;;;;;;;120.57;83.85;;;5.80;99.90;;;;;;5091614;28;20028;-79
2023/12/17 09:20:41;;;;;;;126.07;90.65;;;5.70;99.90;;;;;;5094525;28;20474;-77
2023/12/17 09:23:06;;;;;;;115.90;80.38;;;5.80;99.90;;;;;;5094333;28;20039;-78
2023/12/17 09:25:32;;;;;;;123.40;88.40;;;5.80;99.90;;;;;;5094470;28;20149;-77
2023/12/17 09:27:58;;;;;;;145.98;98.45;;;5.90;99.90;;;;;;5094356;28;20099;-77
2023/12/17 09:30:24;;;;;;;108.78;70.63;;;5.90;99.90;;;;;;5094779;28;20507;-77
2023/12/17 09:32:50;;;;;;;112.68;75.03;;;6.00;99.90;;;;;;5094437;28;20063;-77
2023/12/17 09:35:19;;;;;;;99.20;68.38;;;5.90;99.90;;;;;;5094554;28;20030;-78
2023/12/17 09:37:46;;;;;;;67.93;45.45;;;5.90;99.90;;;;;;5093709;28;20020;-76
2023/12/17 09:40:12;;;;;;;78.88;52.60;;;5.90;99.90;;;;;;5076368;28;20117;-78
2023/12/17 09:42:42;;;;;;;85.20;55.10;;;6.00;99.90;;;;;;5076120;28;20044;-77
2023/12/17 09:45:10;;;;;;;81.95;57.97;;;6.00;99.90;;;;;;5094056;28;20024;-77
2023/12/17 09:47:36;;;;;;;80.65;53.17;;;5.90;99.90;;;;;;5094183;28;20035;-77
2023/12/17 09:50:02;;;;;;;74.50;48.95;;;6.00;99.90;;;;;;5094561;28;20039;-77
2023/12/17 09:52:30;;;;;;;77.00;50.17;;;6.00;99.90;;;;;;5093224;28;20020;-77
2023/12/17 09:54:56;;;;;;;66.97;45.50;;;6.10;99.90;;;;;;5093562;28;20028;-76
2023/12/17 09:57:21;;;;;;;75.75;49.13;;;6.10;99.90;;;;;;5093439;28;20031;-77
2023/12/17 09:59:47;;;;;;;68.70;47.78;;;6.20;99.90;;;;;;5093752;28;20024;-76
2023/12/17 10:02:17;;;;;;;69.40;46.38;;;6.40;99.90;;;;;;5093502;28;20093;-76
2023/12/17 10:04:43;;;;;;;66.47;44.08;;;6.40;99.90;;;;;;5093171;28;20081;-76
2023/12/17 10:07:09;;;;;;;70.47;43.80;;;6.50;99.90;;;;;;5093678;28;20378;-76
2023/12/17 10:09:35;;;;;;;78.03;51.90;;;6.60;99.90;;;;;;5092730;28;20024;-76
2023/12/17 10:12:02;;;;;;;86.72;59.90;;;6.70;99.90;;;;;;5093659;28;20061;-77
2023/12/17 10:14:30;;;;;;;107.03;72.93;;;6.70;99.90;;;;;;5092036;28;20062;-76
2023/12/17 10:16:57;;;;;;;105.57;74.07;;;6.80;99.90;;;;;;5082620;28;20425;-78
2023/12/17 10:19:24;;;;;;;105.15;73.13;;;7.00;99.90;;;;;;5092142;28;20027;-77
2023/12/17 10:21:50;;;;;;;103.97;70.55;;;7.10;99.90;;;;;;5081962;28;20383;-76
2023/12/17 10:24:17;;;;;;;91.63;66.10;;;7.10;99.20;;;;;;5092882;28;20028;-77
2023/12/17 10:26:45;;;;;;;97.75;67.82;;;7.20;99.20;;;;;;5093373;28;20024;-80
2023/12/17 10:29:16;;;;;;;93.47;66.28;;;7.10;98.70;;;;;;5078777;28;20028;-77
2023/12/17 10:31:43;;;;;;;105.15;69.82;;;7.20;98.70;;;;;;5085100;28;20024;-77
2023/12/17 10:34:19;;;;;;;92.80;59.45;;;7.30;98.70;;;;;;5093206;28;20025;-78
2023/12/17 10:36:47;;;;;;;80.85;57.13;;;7.20;98.60;;;;;;5093222;28;20158;-80
2023/12/17 10:39:15;;;;;;;82.82;52.25;;;7.30;98.50;;;;;;5092544;28;20024;-77
2023/12/17 10:41:42;;;;;;;66.72;48.85;;;7.40;98.30;;;;;;5093362;28;20031;-78
2023/12/17 10:44:12;;;;;;;70.80;48.05;;;7.50;99.10;;;;;;5092537;28;20056;-77
2023/12/17 10:46:43;;;;;;;71.43;51.83;;;7.60;98.70;;;;;;5092995;28;20028;-79
2023/12/17 10:49:10;;;;;;;74.28;50.53;;;7.70;96.70;;;;;;5092798;28;20527;-76
2023/12/17 10:51:41;;;;;;;67.00;47.55;;;7.50;98.30;;;;;;5092441;28;20475;-75
2023/12/17 10:54:09;;;;;;;71.07;47.00;;;7.60;98.50;;;;;;5093038;28;20486;-77
2023/12/17 10:56:45;;;;;;;60.30;40.65;;;7.70;98.30;;;;;;5092757;28;20435;-77
2023/12/17 10:59:14;;;;;;;43.65;30.52;;;7.80;97.40;;;;;;5093000;28;20106;-79
2023/12/17 11:01:42;;;;;;;43.28;28.85;;;8.00;95.40;;;;;;5092206;28;20028;-77
2023/12/17 11:04:08;;;;;;;50.47;35.03;;;8.00;95.30;;;;;;5092486;28;20553;-75
2023/12/17 11:06:34;;;;;;;54.42;35.47;;;8.00;95.20;;;;;;5092483;28;20081;-76
2023/12/17 11:09:00;;;;;;;52.60;35.00;;;8.00;95.70;;;;;;5092563;28;20051;-76
2023/12/17 11:11:30;;;;;;;46.97;31.80;;;7.90;96.30;;;;;;5092543;28;20028;-76
2023/12/17 11:13:57;;;;;;;43.28;29.30;;;8.10;95.80;;;;;;5092508;28;20103;-75
2023/12/17 11:16:24;;;;;;;43.67;27.73;;;8.10;95.20;;;;;;5091797;28;20052;-75
2023/12/17 11:18:51;;;;;;;23.40;15.52;;;8.10;95.20;;;;;;5091535;28;20148;-76
2023/12/17 11:21:18;;;;;;;25.58;14.73;;;8.20;93.70;;;;;;5092389;28;20016;-76
2023/12/17 11:23:55;;;;;;;25.88;14.23;;;8.30;93.40;;;;;;5091338;28;20023;-77
2023/12/17 11:26:21;;;;;;;24.67;13.18;;;8.40;93.40;;;;;;5092022;28;20043;-77
2023/12/17 11:28:48;;;;;;;22.80;14.18;;;8.30;92.70;;;;;;5092334;28;20081;-78
2023/12/17 11:31:14;;;;;;;22.92;13.82;;;8.30;92.90;;;;;;5092154;28;20020;-75
2023/12/17 11:33:40;;;;;;;21.65;12.80;;;8.20;93.20;;;;;;5092063;28;20020;-76
2023/12/17 11:36:10;;;;;;;23.42;14.52;;;8.10;92.90;;;;;;5092003;28;20378;-76
2023/12/17 11:38:36;;;;;;;27.50;17.13;;;8.10;92.60;;;;;;5092186;28;20020;-77
2023/12/17 11:41:05;;;;;;;25.38;15.52;;;8.20;92.70;;;;;;5092089;28;20032;-76
2023/12/17 11:43:32;;;;;;;26.55;15.38;;;8.30;92.90;;;;;;5091929;28;20089;-77
2023/12/17 11:45:58;;;;;;;25.40;14.95;;;8.30;92.70;;;;;;5106725;28;20032;-76
2023/12/17 11:48:28;;;;;;;26.38;15.23;;;8.20;92.50;;;;;;5091901;28;20038;-79
2023/12/17 11:50:59;;;;;;;22.95;14.75;;;8.30;92.90;;;;;;5073647;28;20416;-77
2023/12/17 11:53:27;;;;;;;25.17;14.13;;;8.10;91.50;;;;;;5091596;28;20096;-75
2023/12/17 11:56:03;;;;;;;26.90;14.48;;;8.00;91.90;;;;;;5091894;28;20489;-78
2023/12/17 11:58:29;;;;;;;24.10;15.07;;;8.00;91.30;;;;;;5092297;28;20490;-78
2023/12/17 12:01:12;;;;;;;28.67;17.45;;;7.80;91.40;;;;;;5091961;28;20020;-78
2023/12/17 12:03:41;;;;;;;29.52;16.30;;;7.80;92.00;;;;;;5091493;28;20039;-77
2023/12/17 12:06:12;;;;;;;26.33;16.58;;;7.80;92.50;;;;;;5073289;28;20031;-78
2023/12/17 12:08:43;;;;;;;28.00;18.35;;;7.80;92.50;;;;;;5104901;28;20467;-78
2023/12/17 12:11:10;;;;;;;30.10;16.98;;;7.80;91.90;;;;;;5087427;28;20028;-78
2023/12/17 12:13:40;;;;;;;31.10;18.80;;;7.70;92.20;;;;;;5090517;28;20036;-76
2023/12/17 12:16:08;;;;;;;31.00;17.63;;;7.70;92.10;;;;;;5078188;28;20075;-79
2023/12/17 12:18:33;;;;;;;26.05;16.73;;;7.80;92.40;;;;;;5085973;28;20040;-79
2023/12/17 12:20:59;;;;;;;26.90;15.13;;;7.80;92.50;;;;;;5092220;28;20043;-78
2023/12/17 12:23:26;;;;;;;26.65;15.45;;;7.80;92.40;;;;;;5091557;28;20111;-79
2023/12/17 12:25:58;;;;;;;26.50;16.42;;;7.80;92.30;;;;;;5091753;28;20069;-79
2023/12/17 12:28:24;;;;;;;23.95;15.15;;;7.80;92.60;;;;;;5091724;28;20028;-78
2023/12/17 12:30:50;;;;;;;23.13;14.32;;;7.80;93.10;;;;;;5073285;28;20522;-79